International Falls, Minnesota
Current Conditions -  °F | °C
As of 2:55 PM on Wednesday 26 Nov 2014 (Local Time) from KINL Reporting Station
Few Clouds Few Clouds  
Wind Chill: -8°   Ceiling: Unl
Heat Index:   Visibility: 10mi
Dew Point: -5°   Wind: 9mph
Humidity: 60%   Direction: 350°N
Pressure: 30.32"   Gusts: NA
Location:  48.6°N, 93.4°W
Report Text: KINL 262055Z AUTO 35008KT 10SM FEW024 M14/M21 A3032 RMK AO2 SLP297 T11441206 53009 $
Loading
Personal Weather Stations






























Interactive Weather Map New forecast layout! Learn more

10-Day Weather Forecast

Advertisements
Track Severe Weather on mobile